createdAt,value
2018-01-07T00:00:51.875Z,5.40
2018-01-07T00:01:51.855Z,5.36
2018-01-07T00:02:51.830Z,5.27
2018-01-07T00:03:51.814Z,5.34
2018-01-07T00:04:51.782Z,5.22
2018-01-07T00:05:51.761Z,5.14
2018-01-07T00:06:51.741Z,5.09
2018-01-07T00:07:51.731Z,5.14
2018-01-07T00:08:51.700Z,5.12
2018-01-07T00:09:51.673Z,5.18
2018-01-07T00:10:51.653Z,5.29
2018-01-07T00:11:51.640Z,5.33
2018-01-07T00:12:51.611Z,5.36
2018-01-07T00:13:51.586Z,5.48
2018-01-07T00:14:51.564Z,5.41
2018-01-07T00:15:51.552Z,5.51
2018-01-07T00:16:51.522Z,5.43
2018-01-07T00:17:51.500Z,5.47
2018-01-07T00:18:51.480Z,5.39
2018-01-07T00:19:51.466Z,5.41
2018-01-07T00:20:51.432Z,5.40
2018-01-07T00:21:51.410Z,5.29
2018-01-07T00:22:51.391Z,5.33
2018-01-07T00:23:51.370Z,5.36
2018-01-07T00:24:51.352Z,5.34
2018-01-07T00:25:51.324Z,5.29
2018-01-07T00:26:51.306Z,5.43
2018-01-07T00:27:51.279Z,5.37
2018-01-07T00:28:51.270Z,5.44
2018-01-07T00:29:51.241Z,5.37
2018-01-07T00:30:51.216Z,5.32
2018-01-07T00:31:51.193Z,5.22
2018-01-07T00:32:51.170Z,5.15
2018-01-07T00:33:51.154Z,5.15
2018-01-07T00:34:51.131Z,5.06
2018-01-07T00:35:51.113Z,5.11
2018-01-07T00:36:51.085Z,5.11
2018-01-07T00:37:51.058Z,5.15
2018-01-07T00:38:51.042Z,5.21
2018-01-07T00:39:51.013Z,5.25
2018-01-07T00:40:50.994Z,5.24
2018-01-07T00:41:50.990Z,5.36
2018-01-07T00:42:50.950Z,5.36
2018-01-07T00:43:50.931Z,5.32
2018-01-07T00:44:50.906Z,5.30
2018-01-07T00:45:50.881Z,5.34
2018-01-07T00:46:50.860Z,5.33
2018-01-07T00:47:50.842Z,5.34
2018-01-07T00:48:50.820Z,5.30
2018-01-07T00:49:50.793Z,5.34
2018-01-07T00:50:50.781Z,5.24
2018-01-07T00:51:50.749Z,5.22
2018-01-07T00:52:50.730Z,5.29
2018-01-07T00:53:50.712Z,5.29
2018-01-07T00:54:50.681Z,5.25
2018-01-07T00:55:50.661Z,5.37
2018-01-07T00:56:50.640Z,5.33
2018-01-07T00:57:50.615Z,5.29
2018-01-07T00:58:50.594Z,5.22
2018-01-07T00:59:50.630Z,5.34
2018-01-07T01:00:50.550Z,5.41
2018-01-07T01:01:50.526Z,5.43
2018-01-07T01:02:50.514Z,5.47
2018-01-07T01:03:50.492Z,5.50
2018-01-07T01:04:50.468Z,5.52
2018-01-07T01:05:50.492Z,5.47
2018-01-07T01:06:50.418Z,5.44
2018-01-07T01:07:50.402Z,5.52
2018-01-07T01:08:50.379Z,5.52
2018-01-07T01:09:50.359Z,5.52
2018-01-07T01:10:50.332Z,5.50
2018-01-07T01:11:50.310Z,5.40
2018-01-07T01:12:50.292Z,5.40
2018-01-07T01:13:50.284Z,5.40
2018-01-07T01:14:50.254Z,5.43
2018-01-07T01:15:50.229Z,5.43
2018-01-07T01:16:50.200Z,5.44
2018-01-07T01:17:50.193Z,5.47
2018-01-07T01:18:50.160Z,5.41
2018-01-07T01:19:50.141Z,5.44
2018-01-07T01:20:50.112Z,5.47
2018-01-07T01:21:50.090Z,5.47
2018-01-07T01:22:50.067Z,5.41
2018-01-07T01:23:50.042Z,5.51
2018-01-07T01:24:50.020Z,5.51
2018-01-07T01:25:50.003Z,5.75
2018-01-07T01:26:49.982Z,5.70
2018-01-07T01:27:49.960Z,5.66
2018-01-07T01:28:49.940Z,5.69
2018-01-07T01:29:49.920Z,5.61
2018-01-07T01:30:49.890Z,5.59
2018-01-07T01:31:49.867Z,5.65
2018-01-07T01:32:49.847Z,5.54
2018-01-07T01:33:49.825Z,5.43
2018-01-07T01:34:49.808Z,5.48
2018-01-07T01:35:49.781Z,5.44
2018-01-07T01:36:49.768Z,5.47
2018-01-07T01:37:49.742Z,5.43
2018-01-07T01:38:49.715Z,5.44
2018-01-07T01:39:49.697Z,5.37
2018-01-07T01:40:49.669Z,5.48
2018-01-07T01:41:49.651Z,5.48
2018-01-07T01:42:49.631Z,5.51
2018-01-07T01:43:49.612Z,5.40
2018-01-07T01:44:49.590Z,5.48
2018-01-07T01:45:49.560Z,5.43
2018-01-07T01:46:49.541Z,5.41
2018-01-07T01:47:49.519Z,5.51
2018-01-07T01:48:49.495Z,5.44
2018-01-07T01:49:49.491Z,5.44
2018-01-07T01:50:49.450Z,5.50
2018-01-07T01:51:49.428Z,5.34
2018-01-07T01:52:49.409Z,5.30
2018-01-07T01:53:49.387Z,5.37
2018-01-07T01:54:49.371Z,5.39
2018-01-07T01:55:49.380Z,5.33
2018-01-07T01:56:49.320Z,5.33
2018-01-07T01:57:49.298Z,5.33
2018-01-07T01:58:49.275Z,5.36
2018-01-07T01:59:49.256Z,5.39
2018-01-07T02:00:49.234Z,5.36
2018-01-07T02:01:49.222Z,5.30
2018-01-07T02:02:49.193Z,5.34
2018-01-07T02:03:49.227Z,5.37
2018-01-07T02:04:49.142Z,5.43
2018-01-07T02:05:49.129Z,5.34
2018-01-07T02:06:49.099Z,5.36
2018-01-07T02:07:49.212Z,5.43
2018-01-07T02:08:49.057Z,5.44
2018-01-07T02:09:49.036Z,5.47
2018-01-07T02:10:49.009Z,5.41
2018-01-07T02:11:49.000Z,5.47
2018-01-07T02:12:48.968Z,5.39
2018-01-07T02:13:48.944Z,5.50
2018-01-07T02:14:48.934Z,5.36
2018-01-07T02:15:48.900Z,5.30
2018-01-07T02:16:48.889Z,5.27
2018-01-07T02:17:48.865Z,5.34
2018-01-07T02:18:48.838Z,5.34
2018-01-07T02:19:48.820Z,5.36
2018-01-07T02:20:48.792Z,5.43
2018-01-07T02:21:48.770Z,5.52
2018-01-07T02:22:48.743Z,5.54
2018-01-07T02:23:48.732Z,5.48
2018-01-07T02:24:48.698Z,5.41
2018-01-07T02:25:48.680Z,5.48
2018-01-07T02:26:48.659Z,5.40
2018-01-07T02:27:48.642Z,5.36
2018-01-07T02:28:48.613Z,5.34
2018-01-07T02:29:48.604Z,5.44
2018-01-07T02:30:48.571Z,5.27
2018-01-07T02:31:48.545Z,5.36
2018-01-07T02:32:48.524Z,5.21
2018-01-07T02:33:48.499Z,5.25
2018-01-07T02:34:48.480Z,5.30
2018-01-07T02:35:48.458Z,5.34
2018-01-07T02:36:48.438Z,5.34
2018-01-07T02:37:48.420Z,5.27
2018-01-07T02:38:48.393Z,5.22
2018-01-07T02:39:48.370Z,5.12
2018-01-07T02:40:48.349Z,5.22
2018-01-07T02:41:48.329Z,5.34
2018-01-07T02:42:48.299Z,5.32
2018-01-07T02:43:48.280Z,5.37
2018-01-07T02:44:48.261Z,5.36
2018-01-07T02:45:48.240Z,5.36
2018-01-07T02:46:48.211Z,5.36
2018-01-07T02:47:48.190Z,5.34
2018-01-07T02:48:48.170Z,5.40
2018-01-07T02:49:48.147Z,5.32
2018-01-07T02:50:48.128Z,5.24
2018-01-07T02:51:48.104Z,5.25
2018-01-07T02:52:48.079Z,5.40
2018-01-07T02:53:48.061Z,5.44
2018-01-07T02:54:48.037Z,5.41
2018-01-07T02:55:48.013Z,5.47
2018-01-07T02:56:47.993Z,5.43
2018-01-07T02:57:47.977Z,5.37
2018-01-07T02:58:47.947Z,5.29
2018-01-07T02:59:47.932Z,5.18
2018-01-07T03:00:47.906Z,5.25
2018-01-07T03:01:47.882Z,5.22
2018-01-07T03:02:47.861Z,5.25
2018-01-07T03:03:47.835Z,5.22
2018-01-07T03:04:47.822Z,5.34
2018-01-07T03:05:47.793Z,5.27
2018-01-07T03:06:47.772Z,5.16
2018-01-07T03:07:47.752Z,5.07
2018-01-07T03:08:47.727Z,5.11
2018-01-07T03:09:47.705Z,5.22
2018-01-07T03:10:47.678Z,5.15
2018-01-07T03:11:47.655Z,5.11
2018-01-07T03:12:47.639Z,5.07
2018-01-07T03:13:47.610Z,5.01
2018-01-07T03:14:47.588Z,5.06
2018-01-07T03:15:47.568Z,5.01
2018-01-07T03:16:47.543Z,5.01
2018-01-07T03:17:47.520Z,4.97
2018-01-07T03:18:47.501Z,5.06
2018-01-07T03:19:47.478Z,5.12
2018-01-07T03:20:47.456Z,5.12
2018-01-07T03:21:47.431Z,4.98
2018-01-07T03:22:47.410Z,5.01
2018-01-07T03:23:47.388Z,5.00
2018-01-07T03:24:47.369Z,5.03
2018-01-07T03:25:47.346Z,5.09
2018-01-07T03:26:47.325Z,5.12
2018-01-07T03:27:47.297Z,5.11
2018-01-07T03:28:47.276Z,5.11
2018-01-07T03:29:47.250Z,5.09
2018-01-07T03:30:47.229Z,5.12
2018-01-07T03:31:47.208Z,5.15
2018-01-07T03:32:47.188Z,5.11
2018-01-07T03:33:47.164Z,5.07
2018-01-07T03:34:47.138Z,5.06
2018-01-07T03:35:47.120Z,4.96
2018-01-07T03:36:47.098Z,5.00
2018-01-07T03:37:47.083Z,5.01
2018-01-07T03:38:47.049Z,5.00
2018-01-07T03:39:47.032Z,5.00
2018-01-07T03:40:47.006Z,4.96
2018-01-07T03:41:46.992Z,4.94
2018-01-07T03:42:46.959Z,4.97
2018-01-07T03:43:46.939Z,5.06
2018-01-07T03:44:46.919Z,5.15
2018-01-07T03:45:46.900Z,5.03
2018-01-07T03:46:46.869Z,4.98
2018-01-07T03:47:46.850Z,4.98
2018-01-07T03:48:46.827Z,4.97
2018-01-07T03:49:46.808Z,4.94
2018-01-07T03:50:46.787Z,5.04
2018-01-07T03:51:46.760Z,5.00
2018-01-07T03:52:46.740Z,4.98
2018-01-07T03:53:46.724Z,5.06
2018-01-07T03:54:46.693Z,5.04
2018-01-07T03:55:46.670Z,5.09
2018-01-07T03:56:46.646Z,5.11
2018-01-07T03:57:46.636Z,4.97
2018-01-07T03:58:46.610Z,4.97
2018-01-07T03:59:46.581Z,5.01
2018-01-07T04:00:46.559Z,4.97
2018-01-07T04:01:46.535Z,4.98
2018-01-07T04:02:46.520Z,4.94
2018-01-07T04:03:46.498Z,4.91
2018-01-07T04:04:46.468Z,4.82
2018-01-07T04:05:46.453Z,4.86
2018-01-07T04:06:46.425Z,4.93
2018-01-07T04:07:46.403Z,4.89
2018-01-07T04:08:46.379Z,4.85
2018-01-07T04:09:46.359Z,4.89
2018-01-07T04:10:46.338Z,4.93
2018-01-07T04:11:46.312Z,4.93
2018-01-07T04:12:46.290Z,4.86
2018-01-07T04:13:46.269Z,4.88
2018-01-07T04:14:46.253Z,4.89
2018-01-07T04:15:46.230Z,4.89
2018-01-07T04:16:46.199Z,4.78
2018-01-07T04:17:46.178Z,4.75
2018-01-07T04:18:46.154Z,4.85
2018-01-07T04:19:46.142Z,4.86
2018-01-07T04:20:46.118Z,4.94
2018-01-07T04:21:46.085Z,4.82
2018-01-07T04:22:46.117Z,4.85
2018-01-07T04:23:46.044Z,4.88
2018-01-07T04:24:46.020Z,4.86
2018-01-07T04:25:45.997Z,4.79
2018-01-07T04:26:45.982Z,4.91
2018-01-07T04:27:45.959Z,4.97
2018-01-07T04:28:45.932Z,4.94
2018-01-07T04:29:45.908Z,4.96
2018-01-07T04:30:45.888Z,4.86
2018-01-07T04:31:45.870Z,4.86
2018-01-07T04:32:45.850Z,4.79
2018-01-07T04:33:45.819Z,4.88
2018-01-07T04:34:45.798Z,4.88
2018-01-07T04:35:45.775Z,4.91
2018-01-07T04:36:45.759Z,4.93
2018-01-07T04:37:45.729Z,4.89
2018-01-07T04:38:45.710Z,4.97
2018-01-07T04:39:45.685Z,4.94
2018-01-07T04:40:45.665Z,4.93
2018-01-07T04:41:45.639Z,4.79
2018-01-07T04:42:45.711Z,4.86
2018-01-07T04:43:45.595Z,4.82
2018-01-07T04:44:45.572Z,4.88
2018-01-07T04:45:45.557Z,4.96
2018-01-07T04:46:45.529Z,4.94
2018-01-07T04:47:45.511Z,4.91
2018-01-07T04:48:45.493Z,4.78
2018-01-07T04:49:45.714Z,4.91
2018-01-07T04:50:45.440Z,4.82
2018-01-07T04:51:45.427Z,4.83
2018-01-07T04:52:45.399Z,4.91
2018-01-07T04:53:45.384Z,4.79
2018-01-07T04:54:45.354Z,4.91
2018-01-07T04:55:45.330Z,5.06
2018-01-07T04:56:45.304Z,4.86
2018-01-07T04:57:45.286Z,5.01
2018-01-07T04:58:45.261Z,4.89
2018-01-07T04:59:45.245Z,4.98
2018-01-07T05:00:45.219Z,4.82
2018-01-07T05:01:45.196Z,4.93
2018-01-07T05:02:45.170Z,4.93
2018-01-07T05:03:45.150Z,4.88
2018-01-07T05:04:45.127Z,4.96
2018-01-07T05:05:45.111Z,4.93
2018-01-07T05:06:45.082Z,4.89
2018-01-07T05:07:45.061Z,5.01
2018-01-07T05:08:45.040Z,4.96
2018-01-07T05:09:45.018Z,4.98
2018-01-07T05:10:45.000Z,4.98
2018-01-07T05:11:44.970Z,4.97
2018-01-07T05:12:44.951Z,4.94
2018-01-07T05:13:44.924Z,4.94
2018-01-07T05:14:44.902Z,4.86
2018-01-07T05:15:44.880Z,4.69
2018-01-07T05:16:44.858Z,4.63
2018-01-07T05:17:44.840Z,4.69
2018-01-07T05:18:44.815Z,4.77
2018-01-07T05:19:44.789Z,4.71
2018-01-07T05:20:44.769Z,4.71
2018-01-07T05:21:44.748Z,4.83
2018-01-07T05:22:44.728Z,4.69
2018-01-07T05:23:44.701Z,4.72
2018-01-07T05:24:44.680Z,4.63
2018-01-07T05:25:44.656Z,4.59
2018-01-07T05:26:44.638Z,4.54
2018-01-07T05:27:44.611Z,4.61
2018-01-07T05:28:44.589Z,4.51
2018-01-07T05:29:44.568Z,4.59
2018-01-07T05:30:44.541Z,4.54
2018-01-07T05:31:44.530Z,4.45
2018-01-07T05:32:44.500Z,4.45
2018-01-07T05:33:44.475Z,4.46
2018-01-07T05:34:44.459Z,4.42
2018-01-07T05:35:44.430Z,4.36
2018-01-07T05:36:44.409Z,4.43
2018-01-07T05:37:44.386Z,4.39
2018-01-07T05:38:44.369Z,4.43
2018-01-07T05:39:44.339Z,4.45
2018-01-07T05:40:44.319Z,4.43
2018-01-07T05:41:44.297Z,4.28
2018-01-07T05:42:44.269Z,4.26
2018-01-07T05:43:44.247Z,4.35
2018-01-07T05:44:44.230Z,4.26
2018-01-07T05:45:44.210Z,4.34
2018-01-07T05:46:44.180Z,4.28
2018-01-07T05:47:44.162Z,4.36
2018-01-07T05:48:44.196Z,4.27
2018-01-07T05:49:44.120Z,4.35
2018-01-07T05:50:44.090Z,4.35
2018-01-07T05:51:44.069Z,4.34
2018-01-07T05:52:44.049Z,4.34
2018-01-07T05:53:44.019Z,4.23
2018-01-07T05:54:43.999Z,4.21
2018-01-07T05:55:43.975Z,4.16
2018-01-07T05:56:43.954Z,4.12
2018-01-07T05:57:43.930Z,4.16
2018-01-07T05:58:43.905Z,4.17
2018-01-07T05:59:43.886Z,4.12
2018-01-07T06:00:43.859Z,4.16
2018-01-07T06:01:43.835Z,4.17
2018-01-07T06:02:43.816Z,4.16
2018-01-07T06:03:43.800Z,4.10
2018-01-07T06:04:43.774Z,4.17
2018-01-07T06:05:43.749Z,4.06
2018-01-07T06:06:43.720Z,4.09
2018-01-07T06:07:43.699Z,4.08
2018-01-07T06:08:43.678Z,4.03
2018-01-07T06:09:43.653Z,4.02
2018-01-07T06:10:43.627Z,4.02
2018-01-07T06:11:43.610Z,3.85
2018-01-07T06:12:43.590Z,3.91
2018-01-07T06:13:43.564Z,3.78
2018-01-07T06:14:43.539Z,3.87
2018-01-07T06:15:43.515Z,3.84
2018-01-07T06:16:43.498Z,3.90
2018-01-07T06:17:43.468Z,3.94
2018-01-07T06:18:43.453Z,4.03
2018-01-07T06:19:43.423Z,4.00
2018-01-07T06:20:43.399Z,4.05
2018-01-07T06:21:43.380Z,3.98
2018-01-07T06:22:43.356Z,3.85
2018-01-07T06:23:43.340Z,3.90
2018-01-07T06:24:43.314Z,3.72
2018-01-07T06:25:43.291Z,3.60
2018-01-07T06:26:43.268Z,3.63
2018-01-07T06:27:43.240Z,3.63
2018-01-07T06:28:43.218Z,3.62
2018-01-07T06:29:43.192Z,3.69
2018-01-07T06:30:43.170Z,3.76
2018-01-07T06:31:43.151Z,3.62
2018-01-07T06:32:43.131Z,3.48
2018-01-07T06:33:43.100Z,3.44
2018-01-07T06:34:43.080Z,3.48
2018-01-07T06:35:43.063Z,3.51
2018-01-07T06:36:43.036Z,3.42
2018-01-07T06:37:43.012Z,3.48
2018-01-07T06:38:42.989Z,3.54
2018-01-07T06:39:42.967Z,3.56
2018-01-07T06:40:42.942Z,3.63
2018-01-07T06:41:42.916Z,3.63
2018-01-07T06:42:42.891Z,3.70
2018-01-07T06:43:42.866Z,3.59
2018-01-07T06:44:42.846Z,3.56
2018-01-07T06:45:42.825Z,3.56
2018-01-07T06:46:42.797Z,3.45
2018-01-07T06:47:42.779Z,3.33
2018-01-07T06:48:42.750Z,3.35
2018-01-07T06:49:42.759Z,3.45
2018-01-07T06:50:42.711Z,3.51
2018-01-07T06:51:42.743Z,3.59
2018-01-07T06:52:42.661Z,3.46
2018-01-07T06:53:42.640Z,3.45
2018-01-07T06:54:42.619Z,3.32
2018-01-07T06:55:42.601Z,3.30
2018-01-07T06:56:42.581Z,3.35
2018-01-07T06:57:42.543Z,3.26
2018-01-07T06:58:42.520Z,3.23
2018-01-07T06:59:42.497Z,3.22
2018-01-07T07:00:42.475Z,3.26
2018-01-07T07:01:42.450Z,3.23
2018-01-07T07:02:42.430Z,3.35
2018-01-07T07:03:42.403Z,3.25
2018-01-07T07:04:42.380Z,3.33
2018-01-07T07:05:42.358Z,3.22
2018-01-07T07:06:42.332Z,3.15
2018-01-07T07:07:42.311Z,3.05
2018-01-07T07:08:42.284Z,2.99
2018-01-07T07:09:42.262Z,3.02
2018-01-07T07:10:42.237Z,3.17
2018-01-07T07:11:42.214Z,3.26
2018-01-07T07:12:42.189Z,3.23
2018-01-07T07:13:42.169Z,3.17
2018-01-07T07:14:42.146Z,3.25
2018-01-07T07:15:42.122Z,3.18
2018-01-07T07:16:42.098Z,3.22
2018-01-07T07:17:42.073Z,3.04
2018-01-07T07:18:42.051Z,3.05
2018-01-07T07:19:42.031Z,3.07
2018-01-07T07:20:42.009Z,2.94
2018-01-07T07:21:41.977Z,2.97
2018-01-07T07:22:41.964Z,3.02
2018-01-07T07:23:41.939Z,3.04
2018-01-07T07:24:41.914Z,3.04
2018-01-07T07:25:41.891Z,3.07
2018-01-07T07:26:41.860Z,3.00
2018-01-07T07:27:41.836Z,3.07
2018-01-07T07:28:41.812Z,3.22
2018-01-07T07:29:41.790Z,3.12
2018-01-07T07:30:41.768Z,3.11
2018-01-07T07:31:41.745Z,3.25
2018-01-07T07:32:41.721Z,3.14
2018-01-07T07:33:41.692Z,3.05
2018-01-07T07:34:41.670Z,3.12
2018-01-07T07:35:41.648Z,3.18
2018-01-07T07:36:41.629Z,3.18
2018-01-07T07:37:41.600Z,3.15
2018-01-07T07:38:41.580Z,3.12
2018-01-07T07:39:41.560Z,3.14
2018-01-07T07:40:41.532Z,3.11
2018-01-07T07:41:41.510Z,3.05
2018-01-07T07:42:41.488Z,2.97
2018-01-07T07:43:41.459Z,2.94
2018-01-07T07:44:41.439Z,3.07
2018-01-07T07:45:41.410Z,3.04
2018-01-07T07:46:41.390Z,3.07
2018-01-07T07:47:41.369Z,3.14
2018-01-07T07:48:41.347Z,3.09
2018-01-07T07:49:41.318Z,3.12
2018-01-07T07:50:41.297Z,2.99
2018-01-07T07:51:41.270Z,2.96
2018-01-07T07:52:41.250Z,2.97
2018-01-07T07:53:41.229Z,3.02
2018-01-07T07:54:41.209Z,2.96
2018-01-07T07:55:41.179Z,2.99
2018-01-07T07:56:41.156Z,2.91
2018-01-07T07:57:41.130Z,2.86
2018-01-07T07:58:41.108Z,2.81
2018-01-07T07:59:41.080Z,2.81
2018-01-07T08:00:41.065Z,2.78
2018-01-07T08:01:41.036Z,2.63
2018-01-07T08:02:41.060Z,2.86
2018-01-07T08:03:40.990Z,2.96
2018-01-07T08:04:40.965Z,2.90
2018-01-07T08:05:40.939Z,2.90
2018-01-07T08:06:40.930Z,2.79
2018-01-07T08:07:40.901Z,2.72
2018-01-07T08:08:40.871Z,2.73
2018-01-07T08:09:40.852Z,2.94
2018-01-07T08:10:40.833Z,2.94
2018-01-07T08:11:40.803Z,2.89
2018-01-07T08:12:40.829Z,2.73
2018-01-07T08:13:40.751Z,2.84
2018-01-07T08:14:40.732Z,2.93
2018-01-07T08:15:40.711Z,2.93
2018-01-07T08:16:40.696Z,2.89
2018-01-07T08:17:40.664Z,2.91
2018-01-07T08:18:40.680Z,2.94
2018-01-07T08:19:40.614Z,3.00
2018-01-07T08:20:40.692Z,2.89
2018-01-07T08:21:40.572Z,2.91
2018-01-07T08:22:40.641Z,2.72
2018-01-07T08:23:40.521Z,2.76
2018-01-07T08:24:40.598Z,2.94
2018-01-07T08:25:40.471Z,2.99
2018-01-07T08:26:40.492Z,2.96
2018-01-07T08:27:40.420Z,2.97
2018-01-07T08:28:40.397Z,2.93
2018-01-07T08:29:40.371Z,2.93
2018-01-07T08:30:40.346Z,2.93
2018-01-07T08:31:40.337Z,3.00
2018-01-07T08:32:40.303Z,2.97
2018-01-07T08:33:40.278Z,2.94
2018-01-07T08:34:40.262Z,2.96
2018-01-07T08:35:40.242Z,2.99
2018-01-07T08:36:40.212Z,3.00
2018-01-07T08:37:40.183Z,2.99
2018-01-07T08:38:40.161Z,3.08
2018-01-07T08:39:40.144Z,3.07
2018-01-07T08:40:40.114Z,3.04
2018-01-07T08:41:40.090Z,3.02
2018-01-07T08:42:40.071Z,3.05
2018-01-07T08:43:40.051Z,3.23
2018-01-07T08:44:40.019Z,3.15
2018-01-07T08:45:40.002Z,3.07
2018-01-07T08:46:39.973Z,3.05
2018-01-07T08:47:39.950Z,3.05
2018-01-07T08:48:39.934Z,3.05
2018-01-07T08:49:39.910Z,3.08
2018-01-07T08:50:39.882Z,3.07
2018-01-07T08:51:39.860Z,3.18
2018-01-07T08:52:39.843Z,2.99
2018-01-07T08:53:39.821Z,3.04
2018-01-07T08:54:39.793Z,3.20
2018-01-07T08:55:39.766Z,3.25
2018-01-07T08:56:39.748Z,3.26
2018-01-07T08:57:39.722Z,3.41
2018-01-07T08:58:39.702Z,3.63
2018-01-07T08:59:39.670Z,3.74
2018-01-07T09:00:39.650Z,3.92
2018-01-07T09:01:39.631Z,4.02
2018-01-07T09:02:39.608Z,4.26
2018-01-07T09:03:39.581Z,4.43
2018-01-07T09:04:39.561Z,4.71
2018-01-07T09:05:39.542Z,4.56
2018-01-07T09:06:39.515Z,4.34
2018-01-07T09:07:39.491Z,4.45
2018-01-07T09:08:39.472Z,4.28
2018-01-07T09:09:39.452Z,4.13
2018-01-07T09:10:39.424Z,4.45
2018-01-07T09:11:39.413Z,4.59
2018-01-07T09:12:39.387Z,4.79
2018-01-07T09:13:39.362Z,4.74
2018-01-07T09:14:39.340Z,5.00
2018-01-07T09:15:39.320Z,4.83
2018-01-07T09:16:39.299Z,4.78
2018-01-07T09:17:39.284Z,5.12
2018-01-07T09:18:39.259Z,4.96
2018-01-07T09:19:39.231Z,5.07
2018-01-07T09:20:39.221Z,5.24
2018-01-07T09:21:39.189Z,5.01
2018-01-07T09:22:39.171Z,5.12
2018-01-07T09:23:39.148Z,4.74
2018-01-07T09:24:39.133Z,4.67
2018-01-07T09:25:39.121Z,4.31
2018-01-07T09:26:39.097Z,4.21
2018-01-07T09:27:39.070Z,4.49
2018-01-07T09:28:39.052Z,4.51
2018-01-07T09:29:39.028Z,4.34
2018-01-07T09:30:39.009Z,4.34
2018-01-07T09:31:38.996Z,4.17
2018-01-07T09:32:38.958Z,4.09
2018-01-07T09:33:38.944Z,3.91
2018-01-07T09:34:38.925Z,3.91
2018-01-07T09:35:38.896Z,3.96
2018-01-07T09:36:38.879Z,4.08
2018-01-07T09:37:38.862Z,4.18
2018-01-07T09:38:38.838Z,4.18
2018-01-07T09:39:38.811Z,4.13
2018-01-07T09:40:38.792Z,3.96
2018-01-07T09:41:38.770Z,4.23
2018-01-07T09:42:38.748Z,4.26
2018-01-07T09:43:38.727Z,4.31
2018-01-07T09:44:38.702Z,4.48
2018-01-07T09:45:38.785Z,4.35
2018-01-07T09:46:38.660Z,4.18
2018-01-07T09:47:38.641Z,4.17
2018-01-07T09:48:38.618Z,4.61
2018-01-07T09:49:38.599Z,4.51
2018-01-07T09:50:38.577Z,4.42
2018-01-07T09:51:38.560Z,4.28
2018-01-07T09:52:38.532Z,4.67
2018-01-07T09:53:38.511Z,4.82
2018-01-07T09:54:38.492Z,4.63
2018-01-07T09:55:38.471Z,5.22
2018-01-07T09:56:38.452Z,5.41
2018-01-07T09:57:38.424Z,5.84
2018-01-07T09:58:38.409Z,6.09
2018-01-07T09:59:38.383Z,6.46
2018-01-07T10:00:38.372Z,6.25
2018-01-07T10:01:38.347Z,6.57
2018-01-07T10:02:38.335Z,6.60
2018-01-07T10:03:38.317Z,5.91
2018-01-07T10:04:38.294Z,5.98
2018-01-07T10:05:38.275Z,5.82
2018-01-07T10:06:38.255Z,6.06
2018-01-07T10:07:38.231Z,6.45
2018-01-07T10:08:38.213Z,6.63
2018-01-07T10:09:38.191Z,7.13
2018-01-07T10:10:38.172Z,6.91
2018-01-07T10:11:38.158Z,6.74
2018-01-07T10:12:38.133Z,6.13
2018-01-07T10:13:38.117Z,5.65
2018-01-07T10:14:38.100Z,6.65
2018-01-07T10:15:38.082Z,6.19
2018-01-07T10:16:38.056Z,6.21
2018-01-07T10:17:38.050Z,6.63
2018-01-07T10:18:38.023Z,6.30
2018-01-07T10:19:38.006Z,6.60
2018-01-07T10:20:37.994Z,6.89
2018-01-07T10:21:37.967Z,6.28
2018-01-07T10:22:37.955Z,6.21
2018-01-07T10:23:37.935Z,6.40
2018-01-07T10:24:37.913Z,6.03
2018-01-07T10:25:37.893Z,5.93
2018-01-07T10:26:37.879Z,6.06
2018-01-07T10:27:37.857Z,7.04
2018-01-07T10:28:37.833Z,6.28
2018-01-07T10:29:37.820Z,6.02
2018-01-07T10:30:37.798Z,6.24
2018-01-07T10:31:37.798Z,5.88
2018-01-07T10:32:37.771Z,5.79
2018-01-07T10:33:37.754Z,5.76
2018-01-07T10:34:37.721Z,5.70
2018-01-07T10:35:37.704Z,6.82
2018-01-07T10:36:37.691Z,7.10
2018-01-07T10:37:37.681Z,7.64
2018-01-07T10:38:37.650Z,7.96
2018-01-07T10:39:37.642Z,7.52
2018-01-07T10:40:37.611Z,8.19
2018-01-07T10:41:37.603Z,8.02
2018-01-07T10:42:37.581Z,8.06
2018-01-07T10:43:37.567Z,7.94
2018-01-07T10:44:37.546Z,7.55
2018-01-07T10:45:37.527Z,7.34
2018-01-07T10:46:37.508Z,7.34
2018-01-07T10:47:37.505Z,6.78
2018-01-07T10:48:37.481Z,6.92
2018-01-07T10:49:37.459Z,6.55
2018-01-07T10:50:37.448Z,6.55
2018-01-07T10:51:37.432Z,6.91
2018-01-07T10:52:37.401Z,6.42
2018-01-07T10:53:37.385Z,6.05
2018-01-07T10:54:37.364Z,6.15
2018-01-07T10:55:37.350Z,5.94
2018-01-07T10:56:37.331Z,5.87
2018-01-07T10:57:37.311Z,5.77
2018-01-07T10:58:37.292Z,5.62
2018-01-07T10:59:37.275Z,5.19
2018-01-07T11:00:37.252Z,5.21
2018-01-07T11:01:37.236Z,5.11
2018-01-07T11:02:37.221Z,5.21
2018-01-07T11:03:37.193Z,5.18
2018-01-07T11:04:37.174Z,5.07
2018-01-07T11:05:37.158Z,5.06
2018-01-07T11:06:37.143Z,5.27
2018-01-07T11:07:37.120Z,5.77
2018-01-07T11:08:37.097Z,5.69
2018-01-07T11:09:37.077Z,5.90
2018-01-07T11:10:37.062Z,5.85
2018-01-07T11:11:37.034Z,5.70
2018-01-07T11:12:37.021Z,5.58
2018-01-07T11:13:37.002Z,5.59
2018-01-07T11:14:36.982Z,5.77
2018-01-07T11:15:36.967Z,6.11
2018-01-07T11:16:36.934Z,5.93
2018-01-07T11:17:36.918Z,6.56
2018-01-07T11:18:36.902Z,6.89
2018-01-07T11:19:36.879Z,7.10
2018-01-07T11:20:36.877Z,7.55
2018-01-07T11:21:36.843Z,7.06
2018-01-07T11:22:36.820Z,7.01
2018-01-07T11:23:36.806Z,6.91
2018-01-07T11:24:36.784Z,7.00
2018-01-07T11:25:36.765Z,6.75
2018-01-07T11:26:36.755Z,6.88
2018-01-07T11:27:36.731Z,6.70
2018-01-07T11:28:36.710Z,6.88
2018-01-07T11:29:36.690Z,7.19
2018-01-07T11:30:36.672Z,7.52
2018-01-07T11:31:36.658Z,7.07
2018-01-07T11:32:36.635Z,7.04
2018-01-07T11:33:36.621Z,7.28
2018-01-07T11:34:36.613Z,7.03
2018-01-07T11:35:36.582Z,7.47
2018-01-07T11:36:36.573Z,7.34
2018-01-07T11:37:36.549Z,6.93
2018-01-07T11:38:36.531Z,7.19
2018-01-07T11:39:36.520Z,7.39
2018-01-07T11:40:36.500Z,7.88
2018-01-07T11:41:36.481Z,7.80
2018-01-07T11:42:36.463Z,7.96
2018-01-07T11:43:36.451Z,8.20
2018-01-07T11:44:36.432Z,7.73
2018-01-07T11:45:36.416Z,8.05
2018-01-07T11:46:36.399Z,7.57
2018-01-07T11:47:36.382Z,7.39
2018-01-07T11:48:36.362Z,6.99
2018-01-07T11:49:36.342Z,7.10
2018-01-07T11:50:36.340Z,7.00
2018-01-07T11:51:36.335Z,7.03
2018-01-07T11:52:36.291Z,7.13
2018-01-07T11:53:36.278Z,7.57
2018-01-07T11:54:36.260Z,7.52
2018-01-07T11:55:36.248Z,7.49
2018-01-07T11:56:36.273Z,7.13
2018-01-07T11:57:36.211Z,6.89
2018-01-07T11:58:36.193Z,7.04
2018-01-07T11:59:36.191Z,6.71
2018-01-07T12:00:36.159Z,6.97
2018-01-07T12:01:36.140Z,7.47
2018-01-07T12:02:36.120Z,7.18
2018-01-07T12:03:36.107Z,7.22
2018-01-07T12:04:36.102Z,7.50
2018-01-07T12:05:36.073Z,7.66
2018-01-07T12:06:36.062Z,7.64
2018-01-07T12:07:36.044Z,7.80
2018-01-07T12:08:36.024Z,7.47
2018-01-07T12:09:36.020Z,7.74
2018-01-07T12:10:35.990Z,7.68
2018-01-07T12:11:35.979Z,7.69
2018-01-07T12:12:35.958Z,7.73
2018-01-07T12:13:35.948Z,7.58
2018-01-07T12:14:35.935Z,7.50
2018-01-07T12:15:35.915Z,7.69
2018-01-07T12:16:35.891Z,7.78
2018-01-07T12:17:35.881Z,8.09
2018-01-07T12:18:35.862Z,8.10
2018-01-07T12:19:35.853Z,8.02
2018-01-07T12:20:35.840Z,8.26
2018-01-07T12:21:35.813Z,8.26
2018-01-07T12:22:35.804Z,7.73
2018-01-07T12:23:35.829Z,7.29
2018-01-07T12:24:35.772Z,6.93
2018-01-07T12:25:35.746Z,6.79
2018-01-07T12:26:35.734Z,6.82
2018-01-07T12:27:35.720Z,6.85
2018-01-07T12:28:35.693Z,6.74
2018-01-07T12:29:35.678Z,6.55
2018-01-07T12:30:35.660Z,6.79
2018-01-07T12:31:35.646Z,6.70
2018-01-07T12:32:35.632Z,6.96
2018-01-07T12:33:35.610Z,7.16
2018-01-07T12:34:35.589Z,7.07
2018-01-07T12:35:35.583Z,7.31
2018-01-07T12:36:35.566Z,7.25
2018-01-07T12:37:35.543Z,7.01
2018-01-07T12:38:35.526Z,6.81
2018-01-07T12:39:35.520Z,6.97
2018-01-07T12:40:35.492Z,6.61
2018-01-07T12:41:35.474Z,6.75
2018-01-07T12:42:35.460Z,6.56
2018-01-07T12:43:35.443Z,6.18
2018-01-07T12:44:35.422Z,6.15
2018-01-07T12:45:35.414Z,6.00
2018-01-07T12:46:35.384Z,5.79
2018-01-07T12:47:35.363Z,6.08
2018-01-07T12:48:35.344Z,6.31
2018-01-07T12:49:35.335Z,6.24
2018-01-07T12:50:35.311Z,6.40
2018-01-07T12:51:35.300Z,6.21
2018-01-07T12:52:35.270Z,6.00
2018-01-07T12:53:35.250Z,5.76
2018-01-07T12:54:35.232Z,5.48
2018-01-07T12:55:35.222Z,5.41
2018-01-07T12:56:35.201Z,5.36
2018-01-07T12:57:35.173Z,5.48
2018-01-07T12:58:35.157Z,5.48
2018-01-07T12:59:35.140Z,5.25
2018-01-07T13:00:35.117Z,5.36
2018-01-07T13:01:35.095Z,5.43
2018-01-07T13:02:35.077Z,5.59
2018-01-07T13:03:35.064Z,5.70
2018-01-07T13:04:35.042Z,5.84
2018-01-07T13:05:35.016Z,5.62
2018-01-07T13:06:35.001Z,5.72
2018-01-07T13:07:34.992Z,5.70
2018-01-07T13:08:34.961Z,5.69
2018-01-07T13:09:34.938Z,5.69
2018-01-07T13:10:34.918Z,5.50
2018-01-07T13:11:34.902Z,5.59
2018-01-07T13:12:34.879Z,5.51
2018-01-07T13:13:34.861Z,5.54
2018-01-07T13:14:34.838Z,5.57
2018-01-07T13:15:34.822Z,5.69
2018-01-07T13:16:34.800Z,5.67
2018-01-07T13:17:34.778Z,5.75
2018-01-07T13:18:34.761Z,5.66